エカテリンブルク の空港の天気 - METARとTAF

コルツォヴォ空港 ( USSS / SVX ) - ロシア エカテリンブルク
飛行場実況気象(Metar)
観測時間06/16 13:30 YEKT (06/16 08:30 UTC)
風向・風速西 6m/s
視程10km以上
天気現象
全天の4割程度の雲 雲底高度 370m
全天の8割程度の雲 雲底高度 790m
気温12℃
湿度88%
気圧1003hPa
METARUSSS 160830Z 27006MPS 9999 SCT012 BKN026CB 12/10 Q1003 R26R/290335 NOSIG RMK QFE732/0976
過去の天気等 Google飛行場航空写真 Wunderground天気予報

過去48時間のMETAR

飛行場予報(TAF)
発表時間: 6/16 13:00 YEKT (6/16 08:00 UTC)
予報対象時間: 16日14時 YEKT ~ 17日14時 YEKT
風向・風速西北西 5m/s 瞬間風速 14m/s
視程10km以上
天気現象弱いしゅう雨
全天の4割程度の雲 雲底高度 340m
全天の8割程度の積乱雲 雲底高度 610m
16日21時 YEKT ~ 16日23時 YEKT に徐々に
風向・風速北北西 3m/s 瞬間風速 10m/s
視程3000m
天気現象もや
17日10時 YEKT ~ 17日11時 YEKT に徐々に
視程10km以上
天気現象運行に影響にある天気現象が終了
TAF USSS 160800Z 1609/1709 29005G14MPS 9999 -SHRA SCT011 BKN020CB
BECMG 1616/1618 34003G10MPS 3000 BR
BECMG 1705/1706 9999 NSW